createdAt,value
2023-02-05T00:00:20.229Z,2.89
2023-02-05T00:02:48.224Z,2.88
2023-02-05T00:05:15.978Z,2.82
2023-02-05T00:07:43.783Z,2.81
2023-02-05T00:10:11.536Z,2.78
2023-02-05T00:12:39.958Z,2.76
2023-02-05T00:15:08.320Z,2.71
2023-02-05T00:17:37.460Z,2.67
2023-02-05T00:20:06.830Z,2.58
2023-02-05T00:22:34.708Z,2.55
2023-02-05T00:25:02.481Z,2.53
2023-02-05T00:27:30.385Z,2.51
2023-02-05T00:29:58.114Z,2.47
2023-02-05T00:32:25.897Z,2.50
2023-02-05T00:34:53.811Z,2.51
2023-02-05T00:37:21.554Z,2.53
2023-02-05T00:39:49.345Z,2.59
2023-02-05T00:42:17.183Z,2.60
2023-02-05T00:44:44.965Z,2.59
2023-02-05T00:47:12.738Z,2.60
2023-02-05T00:49:40.697Z,2.65
2023-02-05T00:52:08.471Z,2.69
2023-02-05T00:54:36.310Z,2.71
2023-02-05T00:57:04.155Z,2.72
2023-02-05T00:59:31.920Z,2.72
2023-02-05T01:01:59.949Z,2.72
2023-02-05T01:04:27.811Z,2.65
2023-02-05T01:06:55.627Z,2.65
2023-02-05T01:09:23.791Z,2.65
2023-02-05T01:11:51.579Z,2.66
2023-02-05T01:14:19.360Z,2.69
2023-02-05T01:16:47.180Z,2.68
2023-02-05T01:19:14.899Z,2.71
2023-02-05T01:21:42.690Z,2.74
2023-02-05T01:24:10.553Z,2.73
2023-02-05T01:26:38.390Z,2.78
2023-02-05T01:29:06.204Z,2.82
2023-02-05T01:31:34.732Z,2.83
2023-02-05T01:34:02.668Z,2.84
2023-02-05T01:36:30.420Z,2.81
2023-02-05T01:38:58.164Z,2.83
2023-02-05T01:41:26.682Z,2.85
2023-02-05T01:44:19.599Z,2.82
2023-02-05T01:46:48.412Z,2.84
2023-02-05T01:49:29.941Z,2.85
2023-02-05T01:51:58.192Z,2.86
2023-02-05T01:54:27.090Z,2.85
2023-02-05T01:56:59.235Z,2.84
2023-02-05T01:59:29.090Z,2.84
2023-02-05T02:01:57.003Z,2.86
2023-02-05T02:04:40.107Z,2.87
2023-02-05T02:07:09.841Z,2.87
2023-02-05T02:09:37.938Z,2.85
2023-02-05T02:12:06.006Z,2.81
2023-02-05T02:14:33.946Z,2.79
2023-02-05T02:17:01.760Z,2.70
2023-02-05T02:19:55.236Z,2.68
2023-02-05T02:22:58.775Z,2.65
2023-02-05T02:25:55.344Z,2.65
2023-02-05T02:28:27.129Z,2.63
2023-02-05T02:31:26.954Z,2.64
2023-02-05T02:33:59.877Z,2.65
2023-02-05T02:36:31.798Z,2.65
2023-02-05T02:39:32.328Z,2.65
2023-02-05T02:42:05.214Z,2.68
2023-02-05T02:44:42.628Z,2.69
2023-02-05T02:47:19.244Z,2.68
2023-02-05T02:49:53.318Z,2.66
2023-02-05T02:52:21.931Z,2.65
2023-02-05T02:54:50.347Z,2.61
2023-02-05T02:57:18.808Z,2.59
2023-02-05T02:59:47.121Z,2.59
2023-02-05T03:02:17.103Z,2.55
2023-02-05T03:04:51.492Z,2.53
2023-02-05T03:07:22.103Z,2.47
2023-02-05T03:09:59.277Z,2.43
2023-02-05T03:12:27.033Z,2.41
2023-02-05T03:14:54.825Z,2.39
2023-02-05T03:17:22.903Z,2.37
2023-02-05T03:19:54.323Z,2.36
2023-02-05T03:22:22.040Z,2.34
2023-02-05T03:24:49.809Z,2.33
2023-02-05T03:27:17.579Z,2.32
2023-02-05T03:29:48.603Z,2.29
2023-02-05T03:32:41.731Z,2.26
2023-02-05T03:35:21.369Z,2.24
2023-02-05T03:38:21.920Z,2.22
2023-02-05T03:40:55.884Z,2.19
2023-02-05T03:43:47.385Z,2.14
2023-02-05T03:46:46.413Z,2.05
2023-02-05T03:49:32.572Z,2.04
2023-02-05T03:52:18.970Z,2.03
2023-02-05T03:54:49.688Z,1.96
2023-02-05T03:57:30.265Z,1.99
2023-02-05T03:59:58.038Z,1.97
2023-02-05T04:02:25.878Z,1.98
2023-02-05T04:04:53.715Z,1.98
2023-02-05T04:07:21.404Z,1.96
2023-02-05T04:09:49.195Z,1.96
2023-02-05T04:12:16.999Z,1.95
2023-02-05T04:14:44.884Z,1.96
2023-02-05T04:17:13.132Z,1.95
2023-02-05T04:19:42.590Z,1.92
2023-02-05T04:22:10.418Z,1.90
2023-02-05T04:24:38.119Z,1.89
2023-02-05T04:27:06.115Z,1.83
2023-02-05T04:29:33.883Z,1.74
2023-02-05T04:32:01.698Z,1.66
2023-02-05T04:34:29.534Z,1.56
2023-02-05T04:36:57.331Z,1.52
2023-02-05T04:39:25.091Z,1.50
2023-02-05T04:41:52.897Z,1.47
2023-02-05T04:44:20.820Z,1.40
2023-02-05T04:46:48.618Z,1.38
2023-02-05T04:49:16.399Z,1.38
2023-02-05T04:51:44.190Z,1.37
2023-02-05T04:54:11.978Z,1.37
2023-02-05T04:56:40.355Z,1.40
2023-02-05T04:59:08.149Z,1.40
2023-02-05T05:01:36.056Z,1.36
2023-02-05T05:04:03.839Z,1.31
2023-02-05T05:06:32.156Z,1.29
2023-02-05T05:08:59.904Z,1.29
2023-02-05T05:11:27.768Z,1.24
2023-02-05T05:13:55.631Z,1.14
2023-02-05T05:16:23.425Z,1.03
2023-02-05T05:18:52.884Z,1.01
2023-02-05T05:21:20.670Z,0.97
2023-02-05T05:23:48.548Z,0.98
2023-02-05T05:26:16.363Z,1.02
2023-02-05T05:28:44.226Z,1.06
2023-02-05T05:31:14.623Z,1.08
2023-02-05T05:33:42.440Z,1.10
2023-02-05T05:36:10.186Z,1.11
2023-02-05T05:38:37.989Z,1.13
2023-02-05T05:41:24.412Z,1.17
2023-02-05T05:43:53.494Z,1.18
2023-02-05T05:46:26.802Z,1.15
2023-02-05T05:48:56.864Z,1.16
2023-02-05T05:51:25.556Z,1.14
2023-02-05T05:53:53.429Z,1.11
2023-02-05T05:56:21.265Z,1.08
2023-02-05T05:58:49.057Z,1.08
2023-02-05T06:01:18.013Z,1.06
2023-02-05T06:03:45.951Z,1.02
2023-02-05T06:06:14.347Z,1.00
2023-02-05T06:08:42.188Z,1.02
2023-02-05T06:11:10.041Z,1.06
2023-02-05T06:13:37.896Z,1.05
2023-02-05T06:16:06.267Z,1.04
2023-02-05T06:18:34.035Z,1.05
2023-02-05T06:21:03.542Z,1.09
2023-02-05T06:23:31.422Z,1.10
2023-02-05T06:25:59.373Z,1.11
2023-02-05T06:28:27.170Z,1.14
2023-02-05T06:30:55.179Z,1.16
2023-02-05T06:33:23.016Z,1.16
2023-02-05T06:35:50.901Z,1.16
2023-02-05T06:38:18.753Z,1.18
2023-02-05T06:40:46.651Z,1.21
2023-02-05T06:43:14.416Z,1.23
2023-02-05T06:45:42.162Z,1.29
2023-02-05T06:48:10.076Z,1.30
2023-02-05T06:50:37.871Z,1.30
2023-02-05T06:53:05.664Z,1.32
2023-02-05T06:55:33.885Z,1.34
2023-02-05T06:58:01.819Z,1.36
2023-02-05T07:00:31.504Z,1.37
2023-02-05T07:03:00.100Z,1.40
2023-02-05T07:05:27.927Z,1.40
2023-02-05T07:07:55.735Z,1.42
2023-02-05T07:10:23.520Z,1.46
2023-02-05T07:12:51.257Z,1.46
2023-02-05T07:15:19.298Z,1.52
2023-02-05T07:17:47.192Z,1.56
2023-02-05T07:20:14.980Z,1.61
2023-02-05T07:22:43.197Z,1.60
2023-02-05T07:25:11.068Z,1.66
2023-02-05T07:27:39.048Z,1.69
2023-02-05T07:30:07.581Z,1.77
2023-02-05T07:32:35.388Z,1.82
2023-02-05T07:35:03.244Z,1.88
2023-02-05T07:37:30.980Z,1.90
2023-02-05T07:39:58.882Z,1.89
2023-02-05T07:42:26.827Z,1.88
2023-02-05T07:44:54.587Z,1.92
2023-02-05T07:47:22.338Z,1.98
2023-02-05T07:49:50.306Z,2.04
2023-02-05T07:52:18.155Z,2.11
2023-02-05T07:54:45.961Z,2.14
2023-02-05T07:57:13.853Z,2.20
2023-02-05T07:59:41.675Z,2.24
2023-02-05T08:02:11.255Z,2.27
2023-02-05T08:04:39.093Z,2.34
2023-02-05T08:07:07.086Z,2.37
2023-02-05T08:09:35.418Z,2.41
2023-02-05T08:12:03.229Z,2.46
2023-02-05T08:14:32.387Z,2.51
2023-02-05T08:17:00.472Z,2.58
2023-02-05T08:19:28.359Z,2.59
2023-02-05T08:21:56.349Z,2.58
2023-02-05T08:24:24.188Z,2.62
2023-02-05T08:26:52.010Z,2.66
2023-02-05T08:29:27.595Z,2.71
2023-02-05T08:31:55.457Z,2.81
2023-02-05T08:34:23.386Z,2.92
2023-02-05T08:36:51.177Z,2.94
2023-02-05T08:39:27.199Z,3.06
2023-02-05T08:41:59.869Z,3.15
2023-02-05T08:44:33.198Z,3.44
2023-02-05T08:47:01.155Z,3.58
2023-02-05T08:49:29.095Z,3.66
2023-02-05T08:51:57.101Z,3.71
2023-02-05T08:54:25.374Z,3.68
2023-02-05T08:56:53.425Z,3.66
2023-02-05T08:59:25.991Z,3.61
2023-02-05T09:01:53.851Z,3.61
2023-02-05T09:04:22.579Z,3.64
2023-02-05T09:06:50.537Z,3.73
2023-02-05T09:09:18.520Z,3.77
2023-02-05T09:11:53.843Z,3.71
2023-02-05T09:14:21.707Z,3.72
2023-02-05T09:16:52.343Z,3.80
2023-02-05T09:19:20.348Z,3.81
2023-02-05T09:21:48.300Z,3.89
2023-02-05T09:24:16.226Z,3.95
2023-02-05T09:26:44.053Z,3.98
2023-02-05T09:29:11.849Z,4.07
2023-02-05T09:31:39.722Z,4.11
2023-02-05T09:34:07.648Z,4.14
2023-02-05T09:36:35.450Z,4.19
2023-02-05T09:39:14.092Z,4.25
2023-02-05T09:42:06.396Z,4.29
2023-02-05T09:44:46.146Z,4.34
2023-02-05T09:47:17.761Z,4.43
2023-02-05T09:49:48.367Z,4.45
2023-02-05T09:52:24.289Z,4.48
2023-02-05T09:54:54.187Z,4.52
2023-02-05T09:57:39.651Z,4.56
2023-02-05T10:00:21.875Z,4.58
2023-02-05T10:02:54.876Z,4.55
2023-02-05T10:05:22.826Z,4.51
2023-02-05T10:08:11.244Z,4.55
2023-02-05T10:10:45.524Z,4.55
2023-02-05T10:13:30.377Z,4.57
2023-02-05T10:16:14.089Z,4.60
2023-02-05T10:18:44.938Z,4.66
2023-02-05T10:21:21.535Z,4.66
2023-02-05T10:24:16.778Z,4.67
2023-02-05T10:26:48.010Z,4.68
2023-02-05T10:29:24.945Z,4.71
2023-02-05T10:32:11.463Z,4.75
2023-02-05T10:34:57.346Z,4.73
2023-02-05T10:37:49.868Z,4.70
2023-02-05T10:40:36.476Z,4.74
2023-02-05T10:43:22.561Z,4.73
2023-02-05T10:45:50.657Z,4.69
2023-02-05T10:48:30.487Z,4.72
2023-02-05T10:51:05.743Z,4.74
2023-02-05T10:53:33.844Z,4.73
2023-02-05T10:56:01.807Z,4.72
2023-02-05T10:58:48.886Z,4.72
2023-02-05T11:01:42.759Z,4.77
2023-02-05T11:04:17.516Z,4.79
2023-02-05T11:06:52.830Z,4.80
2023-02-05T11:09:26.777Z,4.82
2023-02-05T11:11:55.984Z,4.83
2023-02-05T11:14:29.477Z,4.86
2023-02-05T11:16:57.346Z,4.86
2023-02-05T11:19:29.303Z,4.82
2023-02-05T11:21:58.931Z,4.84
2023-02-05T11:24:32.020Z,4.81
2023-02-05T11:27:17.865Z,4.82
2023-02-05T11:29:45.676Z,4.84
2023-02-05T11:32:39.952Z,4.83
2023-02-05T11:35:36.961Z,4.83
2023-02-05T11:38:09.522Z,4.84
2023-02-05T11:40:37.682Z,4.83
2023-02-05T11:43:30.232Z,4.87
2023-02-05T11:45:58.933Z,4.90
2023-02-05T11:48:32.489Z,4.90
2023-02-05T11:51:01.822Z,4.94
2023-02-05T11:53:29.685Z,4.93
2023-02-05T11:56:02.223Z,4.93
2023-02-05T11:58:37.577Z,4.93
2023-02-05T12:01:22.724Z,4.94
2023-02-05T12:04:18.487Z,4.93
2023-02-05T12:06:53.068Z,4.93
2023-02-05T12:09:22.443Z,4.96
2023-02-05T12:12:09.716Z,5.02
2023-02-05T12:15:04.016Z,4.99
2023-02-05T12:17:45.058Z,4.97
2023-02-05T12:20:37.247Z,4.92
2023-02-05T12:23:19.135Z,4.83
2023-02-05T12:26:04.107Z,4.82
2023-02-05T12:28:42.725Z,4.80
2023-02-05T12:31:50.102Z,4.79
2023-02-05T12:34:38.049Z,4.80
2023-02-05T12:37:17.566Z,4.79
2023-02-05T12:39:55.002Z,4.73
2023-02-05T12:42:37.478Z,4.68
2023-02-05T12:45:29.626Z,4.69
2023-02-05T12:47:57.745Z,4.67
2023-02-05T12:50:54.694Z,4.64
2023-02-05T12:53:32.241Z,4.61
2023-02-05T12:56:54.089Z,4.58
2023-02-05T12:59:45.143Z,4.52
2023-02-05T13:02:36.151Z,4.50
2023-02-05T13:05:25.351Z,4.49
2023-02-05T13:08:04.210Z,4.46
2023-02-05T13:10:59.969Z,4.46
2023-02-05T13:14:03.471Z,4.44
2023-02-05T13:16:51.038Z,4.47
2023-02-05T13:19:42.301Z,4.46
2023-02-05T13:22:42.997Z,4.47
2023-02-05T13:26:01.532Z,4.47
2023-02-05T13:28:44.472Z,4.46
2023-02-05T13:31:37.732Z,4.46
2023-02-05T13:34:19.075Z,4.47
2023-02-05T13:37:10.158Z,4.42
2023-02-05T13:40:02.305Z,4.42
2023-02-05T13:42:48.451Z,4.40
2023-02-05T13:45:41.110Z,4.34
2023-02-05T13:48:37.598Z,4.32
2023-02-05T13:51:36.922Z,4.27
2023-02-05T13:55:02.083Z,4.27
2023-02-05T13:58:15.328Z,4.25
2023-02-05T14:00:44.564Z,4.27
2023-02-05T14:03:37.360Z,4.26
2023-02-05T14:06:16.706Z,4.26
2023-02-05T14:08:44.600Z,4.22
2023-02-05T14:11:17.190Z,4.22
2023-02-05T14:14:03.612Z,4.15
2023-02-05T14:16:48.914Z,4.15
2023-02-05T14:20:10.937Z,4.13
2023-02-05T14:22:45.250Z,4.11
2023-02-05T14:25:39.275Z,4.05
2023-02-05T14:28:10.054Z,4.03
2023-02-05T14:30:46.732Z,4.04
2023-02-05T14:33:36.723Z,3.98
2023-02-05T14:36:21.086Z,3.91
2023-02-05T14:39:02.085Z,3.89
2023-02-05T14:41:47.106Z,3.84
2023-02-05T14:44:17.977Z,3.85
2023-02-05T14:47:01.026Z,3.83
2023-02-05T14:49:34.792Z,3.84
2023-02-05T14:52:08.625Z,3.86
2023-02-05T14:54:49.999Z,3.85
2023-02-05T14:57:27.890Z,3.76
2023-02-05T14:59:59.553Z,3.79
2023-02-05T15:02:58.475Z,3.72
2023-02-05T15:05:32.281Z,3.68
2023-02-05T15:08:23.291Z,3.66
2023-02-05T15:10:58.457Z,3.61
2023-02-05T15:13:27.445Z,3.63
2023-02-05T15:16:14.278Z,3.59
2023-02-05T15:18:50.357Z,3.59
2023-02-05T15:21:24.852Z,3.60
2023-02-05T15:23:54.444Z,3.61
2023-02-05T15:26:30.349Z,3.54
2023-02-05T15:28:59.545Z,3.56
2023-02-05T15:31:48.294Z,3.57
2023-02-05T15:34:30.067Z,3.60
2023-02-05T15:37:07.917Z,3.55
2023-02-05T15:39:50.332Z,3.55
2023-02-05T15:42:20.470Z,3.57
2023-02-05T15:44:48.334Z,3.55
2023-02-05T15:47:21.781Z,3.51
2023-02-05T15:49:51.813Z,3.40
2023-02-05T15:52:25.974Z,3.36
2023-02-05T15:54:56.417Z,3.39
2023-02-05T15:57:31.321Z,3.41
2023-02-05T16:00:00.597Z,3.41
2023-02-05T16:02:29.896Z,3.45
2023-02-05T16:05:02.636Z,3.50
2023-02-05T16:07:32.429Z,3.52
2023-02-05T16:10:02.100Z,3.50
2023-02-05T16:12:31.678Z,3.43
2023-02-05T16:15:07.296Z,3.45
2023-02-05T16:17:45.398Z,3.42
2023-02-05T16:20:17.818Z,3.38
2023-02-05T16:22:47.429Z,3.36
2023-02-05T16:25:50.995Z,3.34
2023-02-05T16:28:22.743Z,3.36
2023-02-05T16:30:50.674Z,3.34
2023-02-05T16:33:49.052Z,3.35
2023-02-05T16:36:20.690Z,3.31
2023-02-05T16:39:08.678Z,3.30
2023-02-05T16:41:38.372Z,3.30
2023-02-05T16:44:09.355Z,3.31
2023-02-05T16:46:37.760Z,3.32
2023-02-05T16:49:29.367Z,3.26
2023-02-05T16:51:57.533Z,3.26
2023-02-05T16:54:30.750Z,3.20
2023-02-05T16:57:02.193Z,3.22
2023-02-05T16:59:40.738Z,3.20
2023-02-05T17:02:14.100Z,3.20
2023-02-05T17:04:42.053Z,3.17
2023-02-05T17:07:20.091Z,3.19
2023-02-05T17:09:48.088Z,3.18
2023-02-05T17:12:34.137Z,3.20
2023-02-05T17:15:05.756Z,3.27
2023-02-05T17:17:33.864Z,3.23
2023-02-05T17:20:05.505Z,3.20
2023-02-05T17:22:34.226Z,3.16
2023-02-05T17:25:02.411Z,3.14
2023-02-05T17:27:35.224Z,3.16
2023-02-05T17:30:03.224Z,3.15
2023-02-05T17:32:32.143Z,3.14
2023-02-05T17:35:01.352Z,3.18
2023-02-05T17:37:29.320Z,3.28
2023-02-05T17:39:58.869Z,3.30
2023-02-05T17:42:35.614Z,3.31
2023-02-05T17:45:03.539Z,3.35
2023-02-05T17:47:31.387Z,3.39
2023-02-05T17:49:59.381Z,3.41
2023-02-05T17:52:33.151Z,3.44
2023-02-05T17:55:01.080Z,3.43
2023-02-05T17:57:28.980Z,3.48
2023-02-05T17:59:57.908Z,3.51
2023-02-05T18:02:25.926Z,3.52
2023-02-05T18:04:54.084Z,3.52
2023-02-05T18:07:30.685Z,3.54
2023-02-05T18:10:00.617Z,3.55
2023-02-05T18:12:28.509Z,3.52
2023-02-05T18:14:56.403Z,3.53
2023-02-05T18:17:24.277Z,3.52
2023-02-05T18:19:52.738Z,3.51
2023-02-05T18:22:20.658Z,3.55
2023-02-05T18:24:48.620Z,3.57
2023-02-05T18:27:16.454Z,3.53
2023-02-05T18:29:44.351Z,3.55
2023-02-05T18:32:12.351Z,3.55
2023-02-05T18:34:41.170Z,3.53
2023-02-05T18:37:08.989Z,3.51
2023-02-05T18:39:37.080Z,3.49
2023-02-05T18:42:05.316Z,3.50
2023-02-05T18:44:33.264Z,3.50
2023-02-05T18:47:01.195Z,3.50
2023-02-05T18:49:29.127Z,3.52
2023-02-05T18:51:57.211Z,3.53
2023-02-05T18:54:25.280Z,3.50
2023-02-05T18:56:55.785Z,3.51
2023-02-05T18:59:25.290Z,3.51
2023-02-05T19:01:53.216Z,3.52
2023-02-05T19:04:21.994Z,3.48
2023-02-05T19:06:53.688Z,3.45
2023-02-05T19:09:23.006Z,3.41
2023-02-05T19:11:51.077Z,3.41
2023-02-05T19:14:20.092Z,3.39
2023-02-05T19:16:48.432Z,3.36
2023-02-05T19:19:26.532Z,3.37
2023-02-05T19:21:55.483Z,3.40
2023-02-05T19:24:23.287Z,3.42
2023-02-05T19:26:52.126Z,3.44
2023-02-05T19:29:20.959Z,3.44
2023-02-05T19:31:49.168Z,3.47
2023-02-05T19:34:17.355Z,3.45
2023-02-05T19:36:45.274Z,3.42
2023-02-05T19:39:15.190Z,3.43
2023-02-05T19:41:45.401Z,3.43
2023-02-05T19:44:14.517Z,3.43
2023-02-05T19:46:45.339Z,3.44
2023-02-05T19:49:15.761Z,3.39
2023-02-05T19:51:51.332Z,3.38
2023-02-05T19:54:21.464Z,3.37
2023-02-05T19:56:50.014Z,3.38
2023-02-05T19:59:20.976Z,3.38
2023-02-05T20:01:49.867Z,3.38
2023-02-05T20:04:19.595Z,3.39
2023-02-05T20:06:47.816Z,3.40
2023-02-05T20:09:16.450Z,3.39
2023-02-05T20:11:46.389Z,3.35
2023-02-05T20:14:14.352Z,3.37
2023-02-05T20:16:42.273Z,3.36
2023-02-05T20:19:11.386Z,3.39
2023-02-05T20:21:39.798Z,3.40
2023-02-05T20:24:08.617Z,3.39
2023-02-05T20:26:37.215Z,3.37
2023-02-05T20:29:23.671Z,3.36
2023-02-05T20:31:52.612Z,3.39
2023-02-05T20:34:26.758Z,3.41
2023-02-05T20:36:59.673Z,3.34
2023-02-05T20:39:31.359Z,3.37
2023-02-05T20:41:59.735Z,3.36
2023-02-05T20:44:33.211Z,3.35
2023-02-05T20:47:01.414Z,3.33
2023-02-05T20:49:29.605Z,3.34
2023-02-05T20:51:57.529Z,3.37
2023-02-05T20:54:25.453Z,3.41
2023-02-05T20:56:53.494Z,3.44
2023-02-05T20:59:21.452Z,3.40
2023-02-05T21:01:49.460Z,3.42
2023-02-05T21:04:17.386Z,3.41
2023-02-05T21:06:45.307Z,3.38
2023-02-05T21:09:13.040Z,3.40
2023-02-05T21:11:41.297Z,3.39
2023-02-05T21:14:09.499Z,3.41
2023-02-05T21:16:37.754Z,3.42
2023-02-05T21:19:06.978Z,3.41
2023-02-05T21:21:36.131Z,3.42
2023-02-05T21:24:10.537Z,3.43
2023-02-05T21:26:42.940Z,3.44
2023-02-05T21:29:15.943Z,3.41
2023-02-05T21:31:48.827Z,3.44
2023-02-05T21:34:18.974Z,3.43
2023-02-05T21:36:48.428Z,3.43
2023-02-05T21:39:17.328Z,3.45
2023-02-05T21:41:46.679Z,3.45
2023-02-05T21:44:14.618Z,3.47
2023-02-05T21:46:42.509Z,3.47
2023-02-05T21:49:11.429Z,3.48
2023-02-05T21:51:39.248Z,3.46
2023-02-05T21:54:07.440Z,3.44
2023-02-05T21:56:37.374Z,3.44
2023-02-05T21:59:05.414Z,3.45
2023-02-05T22:01:34.737Z,3.34
2023-02-05T22:04:04.365Z,3.30
2023-02-05T22:06:33.190Z,3.27
2023-02-05T22:09:01.579Z,3.19
2023-02-05T22:11:29.646Z,3.20
2023-02-05T22:13:57.817Z,3.21
2023-02-05T22:16:27.146Z,3.18
2023-02-05T22:18:55.136Z,3.19
2023-02-05T22:21:33.212Z,3.22
2023-02-05T22:24:01.983Z,3.26
2023-02-05T22:26:34.568Z,3.30
2023-02-05T22:29:02.766Z,3.36
2023-02-05T22:31:30.844Z,3.38
2023-02-05T22:33:58.838Z,3.41
2023-02-05T22:36:28.916Z,3.40
2023-02-05T22:38:57.055Z,3.43
2023-02-05T22:41:33.395Z,3.42
2023-02-05T22:44:01.694Z,3.47
2023-02-05T22:46:31.289Z,3.48
2023-02-05T22:49:00.281Z,3.49
2023-02-05T22:51:30.276Z,3.51
2023-02-05T22:53:58.265Z,3.51
2023-02-05T22:56:26.305Z,3.51
2023-02-05T22:58:54.396Z,3.51
2023-02-05T23:01:27.084Z,3.52
2023-02-05T23:03:55.293Z,3.50
2023-02-05T23:06:29.849Z,3.51
2023-02-05T23:08:59.200Z,3.51
2023-02-05T23:11:27.578Z,3.51
2023-02-05T23:13:55.724Z,3.51
2023-02-05T23:16:25.442Z,3.54
2023-02-05T23:18:53.954Z,3.53
2023-02-05T23:21:24.370Z,3.50
2023-02-05T23:23:52.454Z,3.52
2023-02-05T23:26:25.487Z,3.54
2023-02-05T23:28:53.903Z,3.55
2023-02-05T23:31:22.141Z,3.51
2023-02-05T23:33:50.265Z,3.51
2023-02-05T23:36:18.354Z,3.53
2023-02-05T23:38:46.202Z,3.52
2023-02-05T23:41:14.261Z,3.52
2023-02-05T23:43:42.084Z,3.53
2023-02-05T23:46:09.947Z,3.53
2023-02-05T23:48:37.812Z,3.52
2023-02-05T23:51:05.625Z,3.52
2023-02-05T23:53:33.445Z,3.50
2023-02-05T23:56:01.274Z,3.51
2023-02-05T23:58:29.159Z,3.51
